Flughafen Kassel-Calden

Aus VATSIM Germany
Version vom 15. Mai 2020, 14:02 Uhr von VATSIM Germany (Diskussion | Beiträge) (Die Seite wurde neu angelegt: „{{Baustelle}} {{Flughafen |ICAO=EDVK }} Kategorie:RG Bremen“)

(Unterschied) ← Nächstältere Version | Bestätigte Version (Unterschied) | Aktuelle Version (Unterschied) | Nächstjüngere Version → (Unterschied)
Wechseln zu:Navigation, Suche
UnderCon icon.svg.pngDieser Artikel ist noch im Aufbau. Der Artikel kann daher unvollständig sein oder Fehler enthalten!


Kassel-Calden Airport
ICAO / IATA EDVK / KSF
Koordinaten N51°24′30″  E009°22′39″
Höhe 277 m / 909 ft
Wetter EDVK 190320Z 22007KT 9000 BKN038 08/07 Q1021
Pisten
Platzfrequenzen
Nur für Flugsimulationszwecke!



Informationen für Piloten und Lotsen
Pilotenbriefing

Standard Operating Procedures (SOP)

Letters of Agreement (LoAs)

Airport Charts